• Join FlightAware (Why Join?)
  • Login
  • US Flag 
11:10AM EDT


 

Airport Tracker/Info


-or-


 

Live Flight TrackerFlight Track Log ✈ CPT7773 ✈ 16-Oct-2013 ✈ KCOD - KCPR

Flight Track Log - Related Links

Times and Time Zones

All times are in EDT time to prevent confusion due to time zone crossing. See the CPT7773 flight status page for this flight to view local times or setup timezone preferences in your user account.

Time Position Orientation Groundspeed Altitude Reporting Facility
EDT Latitude Longitude Course Direction KTS MPH feet Rate Location/Type
08:04PM 44.5319 -108.9650 133° Southeast 145 167 6,700  Level Salt Lake Center
08:05PM 44.5231 -108.9169 105° East 131 151 7,700 900 Climbing Salt Lake Center
08:06PM 44.5156 -108.8636 101° East 135 155 8,600 900 Climbing Salt Lake Center
08:07PM 44.5119 -108.7972 94° East 140 161 9,600 900 Climbing Salt Lake Center
08:08PM 44.4858 -108.7522 129° Southeast 143 165 10,500 660 Climbing Salt Lake Center
08:09PM 44.4569 -108.7122 135° Southeast 144 166 11,000 240 Climbing Salt Lake Center
08:10PM 44.3312 -108.7116 133° Southeast  Level Estimated
08:10PM 44.4244 -108.6606 131° Southeast 157 181 11,000  Level Salt Lake Center
08:11PM 44.3892 -108.6061 132° Southeast 172 198 11,000  Level Salt Lake Center
08:12PM 44.3544 -108.5531 132° Southeast 180 207 11,000  Level Salt Lake Center
08:13PM 44.3133 -108.4894 132° Southeast 183 211 11,000  Level Salt Lake Center
08:15PM 44.2778 -108.4344 132° Southeast 186 214 11,000  Level Salt Lake Center
08:16PM 44.2428 -108.3806 132° Southeast 188 216 11,000  Level Salt Lake Center
08:17PM 44.2081 -108.3267 132° Southeast 188 216 11,000  Level Salt Lake Center
08:18PM 44.1731 -108.2728 132° Southeast 188 216 11,000  Level Salt Lake Center
08:19PM 44.1372 -108.2178 132° Southeast 190 219 11,000  Level Salt Lake Center
08:20PM 44.1019 -108.1650 133° Southeast 189 217 11,000  Level Salt Lake Center
08:21PM 44.0594 -108.0994 132° Southeast 190 219 11,000  Level Salt Lake Center
08:22PM 44.0236 -108.0436 132° Southeast 192 221 11,100  Climbing Salt Lake Center
08:23PM 43.9867 -107.9892 133° Southeast 193 222 11,000 -60 Descending Salt Lake Center
08:24PM 43.9522 -107.9350 131° Southeast 192 221 11,000  Level Salt Lake Center
08:25PM 43.9211 -107.8756 126° Southeast 190 219 11,000  Level Salt Lake Center
08:26PM 43.8919 -107.8147 124° Southeast 190 219 11,100  Climbing Salt Lake Center
08:27PM 43.8542 -107.7419 126° Southeast 192 221 11,100  Level Salt Lake Center
08:28PM 43.8239 -107.6819 125° Southeast 192 221 11,100 -60 Level Salt Lake Center
08:29PM 43.7933 -107.6231 126° Southeast 191 220 11,000 -60 Descending Salt Lake Center
08:30PM 43.7619 -107.5633 126° Southeast 191 220 11,000  Level Salt Lake Center
08:31PM 43.7319 -107.5031 125° Southeast 191 220 11,000  Level Salt Lake Center
08:32PM 43.7006 -107.4428 126° Southeast 192 221 11,100  Climbing Salt Lake Center
08:33PM 43.6639 -107.3728 126° Southeast 191 220 11,000 -60 Descending Salt Lake Center
08:34PM 43.6342 -107.3150 125° Southeast 188 216 11,000  Level Salt Lake Center
08:35PM 43.6028 -107.2569 127° Southeast 188 216 11,100  Climbing Salt Lake Center
08:36PM 43.5742 -107.1967 123° Southeast 187 215 11,000 -60 Descending Salt Lake Center
08:37PM 43.5439 -107.1394 126° Southeast 187 215 11,000  Level Salt Lake Center
08:38PM 43.5133 -107.0814 126° Southeast 187 215 11,100  Climbing Salt Lake Center
08:39PM 43.4825 -107.0253 127° Southeast 185 213 11,100 -60 Level Salt Lake Center
08:40PM 43.4453 -106.9547 126° Southeast 189 217 11,000 -60 Descending Salt Lake Center
08:41PM 43.4164 -106.8997 126° Southeast 185 213 11,000  Level Salt Lake Center
08:42PM 43.3897 -106.8447 124° Southeast 182 209 11,100 -180 Climbing Salt Lake Center
08:43PM 43.3447 -106.7969 142° Southeast 182 209 10,700 -540 Descending Salt Lake Center
08:44PM 43.2953 -106.7664 156° South 196 226 10,100 -600 Descending Salt Lake Center
08:45PM 43.2419 -106.7256 151° Southeast 199 229 9,500 -600 Descending Salt Lake Center
08:46PM 43.2011 -106.6875 146° Southeast 192 221 8,900 -600 Descending Salt Lake Center
08:47PM 43.1508 -106.6458 149° Southeast 190 219 8,300 -600 Descending Salt Lake Center
08:48PM 43.1203 -106.6200 148° Southeast 192 221 7,900 -480 Descending Denver Center
08:49PM 43.0772 -106.5825 148° Southeast 193 222 7,500 -540 Descending Denver Center
08:50PM 43.0289 -106.5394 147° Southeast 190 219 6,900 -300 Descending Denver Center
08:51PM 42.9881 -106.5017 146° Southeast 188 216 6,900 -120 Level Denver Center
08:52PM 42.9528 -106.4719 148° Southeast 172 198 6,700 -240 Descending Denver Center